sensor_id;sensor_type;location;lat;lon;timestamp;temperature;humidity
21167;DHT22;10741;52.272;9.580;2024-02-16T00:00:18;11.50;99.90
21167;DHT22;10741;52.272;9.580;2024-02-16T00:02:44;11.50;99.90
21167;DHT22;10741;52.272;9.580;2024-02-16T00:05:11;11.50;99.90
21167;DHT22;10741;52.272;9.580;2024-02-16T00:07:38;11.40;99.90
21167;DHT22;10741;52.272;9.580;2024-02-16T00:10:05;11.50;99.90
21167;DHT22;10741;52.272;9.580;2024-02-16T00:12:31;11.60;99.90
21167;DHT22;10741;52.272;9.580;2024-02-16T00:14:58;11.50;99.90
21167;DHT22;10741;52.272;9.580;2024-02-16T00:17:24;11.50;99.90
21167;DHT22;10741;52.272;9.580;2024-02-16T00:19:53;11.40;99.90
21167;DHT22;10741;52.272;9.580;2024-02-16T00:22:19;11.40;99.90
21167;DHT22;10741;52.272;9.580;2024-02-16T00:24:44;11.40;99.90
21167;DHT22;10741;52.272;9.580;2024-02-16T00:27:10;11.30;99.90
21167;DHT22;10741;52.272;9.580;2024-02-16T00:29:36;11.30;99.90
21167;DHT22;10741;52.272;9.580;2024-02-16T00:32:04;11.20;99.90
21167;DHT22;10741;52.272;9.580;2024-02-16T00:34:32;11.10;99.90
21167;DHT22;10741;52.272;9.580;2024-02-16T00:36:58;11.20;99.90
21167;DHT22;10741;52.272;9.580;2024-02-16T00:39:23;11.30;99.90
21167;DHT22;10741;52.272;9.580;2024-02-16T00:41:50;11.20;99.90
21167;DHT22;10741;52.272;9.580;2024-02-16T00:44:17;11.20;99.90
21167;DHT22;10741;52.272;9.580;2024-02-16T00:46:43;11.30;99.90
21167;DHT22;10741;52.272;9.580;2024-02-16T00:49:09;11.20;99.90
21167;DHT22;10741;52.272;9.580;2024-02-16T00:51:36;11.10;99.90
21167;DHT22;10741;52.272;9.580;2024-02-16T00:54:02;11.10;99.90
21167;DHT22;10741;52.272;9.580;2024-02-16T00:56:29;11.00;99.90
21167;DHT22;10741;52.272;9.580;2024-02-16T00:58:55;10.90;99.90
21167;DHT22;10741;52.272;9.580;2024-02-16T01:01:21;10.90;99.90
21167;DHT22;10741;52.272;9.580;2024-02-16T01:03:48;10.90;99.90
21167;DHT22;10741;52.272;9.580;2024-02-16T01:06:15;10.90;99.90
21167;DHT22;10741;52.272;9.580;2024-02-16T01:08:40;10.90;99.90
21167;DHT22;10741;52.272;9.580;2024-02-16T01:11:06;10.90;99.90
21167;DHT22;10741;52.272;9.580;2024-02-16T01:13:33;10.90;99.90
21167;DHT22;10741;52.272;9.580;2024-02-16T01:15:59;10.90;99.90
21167;DHT22;10741;52.272;9.580;2024-02-16T01:18:28;10.80;99.90
21167;DHT22;10741;52.272;9.580;2024-02-16T01:20:54;10.70;99.90
21167;DHT22;10741;52.272;9.580;2024-02-16T01:23:21;10.70;99.90
21167;DHT22;10741;52.272;9.580;2024-02-16T01:25:47;10.70;99.90
21167;DHT22;10741;52.272;9.580;2024-02-16T01:28:13;10.80;99.90
21167;DHT22;10741;52.272;9.580;2024-02-16T01:30:39;10.80;99.90
21167;DHT22;10741;52.272;9.580;2024-02-16T01:33:05;10.80;99.90
21167;DHT22;10741;52.272;9.580;2024-02-16T01:35:32;10.90;99.90
21167;DHT22;10741;52.272;9.580;2024-02-16T01:37:58;11.00;99.90
21167;DHT22;10741;52.272;9.580;2024-02-16T01:40:24;10.90;99.90
21167;DHT22;10741;52.272;9.580;2024-02-16T01:42:51;10.80;99.90
21167;DHT22;10741;52.272;9.580;2024-02-16T01:45:18;10.80;99.90
21167;DHT22;10741;52.272;9.580;2024-02-16T01:47:44;10.90;99.90
21167;DHT22;10741;52.272;9.580;2024-02-16T01:50:13;10.90;99.90
21167;DHT22;10741;52.272;9.580;2024-02-16T01:52:39;10.80;99.90
21167;DHT22;10741;52.272;9.580;2024-02-16T01:55:05;10.80;99.90
21167;DHT22;10741;52.272;9.580;2024-02-16T01:57:36;10.70;99.90
21167;DHT22;10741;52.272;9.580;2024-02-16T02:00:02;10.70;99.90
21167;DHT22;10741;52.272;9.580;2024-02-16T02:02:30;10.70;99.90
21167;DHT22;10741;52.272;9.580;2024-02-16T02:04:56;10.70;99.90
21167;DHT22;10741;52.272;9.580;2024-02-16T02:07:25;10.60;99.90
21167;DHT22;10741;52.272;9.580;2024-02-16T02:09:52;10.50;99.90
21167;DHT22;10741;52.272;9.580;2024-02-16T02:12:18;10.40;99.90
21167;DHT22;10741;52.272;9.580;2024-02-16T02:14:44;10.40;99.90
21167;DHT22;10741;52.272;9.580;2024-02-16T02:17:10;10.40;99.90
21167;DHT22;10741;52.272;9.580;2024-02-16T02:19:35;10.40;99.90
21167;DHT22;10741;52.272;9.580;2024-02-16T02:22:01;10.40;99.90
21167;DHT22;10741;52.272;9.580;2024-02-16T02:24:27;10.30;99.90
21167;DHT22;10741;52.272;9.580;2024-02-16T02:26:52;10.30;99.90
21167;DHT22;10741;52.272;9.580;2024-02-16T02:29:18;10.30;99.90
21167;DHT22;10741;52.272;9.580;2024-02-16T02:31:45;10.30;99.90
21167;DHT22;10741;52.272;9.580;2024-02-16T02:34:11;10.20;99.90
21167;DHT22;10741;52.272;9.580;2024-02-16T02:36:37;10.30;99.90
21167;DHT22;10741;52.272;9.580;2024-02-16T02:39:03;10.30;99.90
21167;DHT22;10741;52.272;9.580;2024-02-16T02:41:28;10.40;99.90
21167;DHT22;10741;52.272;9.580;2024-02-16T02:43:54;10.50;99.90
21167;DHT22;10741;52.272;9.580;2024-02-16T02:46:22;10.50;99.90
21167;DHT22;10741;52.272;9.580;2024-02-16T02:48:50;10.50;99.90
21167;DHT22;10741;52.272;9.580;2024-02-16T02:51:17;10.40;99.90
21167;DHT22;10741;52.272;9.580;2024-02-16T02:53:42;10.40;99.90
21167;DHT22;10741;52.272;9.580;2024-02-16T02:56:08;10.40;99.90
21167;DHT22;10741;52.272;9.580;2024-02-16T02:58:34;10.40;99.90
21167;DHT22;10741;52.272;9.580;2024-02-16T03:01:00;10.40;99.90
21167;DHT22;10741;52.272;9.580;2024-02-16T03:03:26;10.50;99.90
21167;DHT22;10741;52.272;9.580;2024-02-16T03:05:51;10.50;99.90
21167;DHT22;10741;52.272;9.580;2024-02-16T03:08:17;10.60;99.90
21167;DHT22;10741;52.272;9.580;2024-02-16T03:10:43;10.60;99.90
21167;DHT22;10741;52.272;9.580;2024-02-16T03:13:10;10.60;99.90
21167;DHT22;10741;52.272;9.580;2024-02-16T03:15:38;10.70;99.90
21167;DHT22;10741;52.272;9.580;2024-02-16T03:18:05;10.70;99.90
21167;DHT22;10741;52.272;9.580;2024-02-16T03:20:34;10.80;99.90
21167;DHT22;10741;52.272;9.580;2024-02-16T03:23:01;10.90;99.90
21167;DHT22;10741;52.272;9.580;2024-02-16T03:25:26;10.90;99.90
21167;DHT22;10741;52.272;9.580;2024-02-16T03:27:52;10.90;99.90
21167;DHT22;10741;52.272;9.580;2024-02-16T03:30:21;10.80;99.90
21167;DHT22;10741;52.272;9.580;2024-02-16T03:32:50;10.80;99.90
21167;DHT22;10741;52.272;9.580;2024-02-16T03:35:16;10.70;99.90
21167;DHT22;10741;52.272;9.580;2024-02-16T03:37:42;10.80;99.90
21167;DHT22;10741;52.272;9.580;2024-02-16T03:40:08;10.80;99.90
21167;DHT22;10741;52.272;9.580;2024-02-16T03:42:35;10.90;99.90
21167;DHT22;10741;52.272;9.580;2024-02-16T03:45:02;10.90;99.90
21167;DHT22;10741;52.272;9.580;2024-02-16T03:47:28;10.90;99.90
21167;DHT22;10741;52.272;9.580;2024-02-16T03:49:54;10.80;99.90
21167;DHT22;10741;52.272;9.580;2024-02-16T03:52:19;10.80;99.90
21167;DHT22;10741;52.272;9.580;2024-02-16T03:54:45;10.80;99.90
21167;DHT22;10741;52.272;9.580;2024-02-16T03:57:14;10.80;99.90
21167;DHT22;10741;52.272;9.580;2024-02-16T03:59:45;11.00;99.90
21167;DHT22;10741;52.272;9.580;2024-02-16T04:02:11;11.00;99.90
21167;DHT22;10741;52.272;9.580;2024-02-16T04:04:39;11.00;99.90
21167;DHT22;10741;52.272;9.580;2024-02-16T04:07:05;11.10;99.90
21167;DHT22;10741;52.272;9.580;2024-02-16T04:09:32;11.10;99.90
21167;DHT22;10741;52.272;9.580;2024-02-16T04:11:58;11.20;99.90
21167;DHT22;10741;52.272;9.580;2024-02-16T04:14:24;11.50;99.90
21167;DHT22;10741;52.272;9.580;2024-02-16T04:16:50;11.60;99.90
21167;DHT22;10741;52.272;9.580;2024-02-16T04:19:15;11.60;99.90
21167;DHT22;10741;52.272;9.580;2024-02-16T04:21:41;11.60;99.90
21167;DHT22;10741;52.272;9.580;2024-02-16T04:24:07;11.50;99.90
21167;DHT22;10741;52.272;9.580;2024-02-16T04:26:33;11.60;99.90
21167;DHT22;10741;52.272;9.580;2024-02-16T04:28:59;11.70;99.90
21167;DHT22;10741;52.272;9.580;2024-02-16T04:31:24;11.80;99.90
21167;DHT22;10741;52.272;9.580;2024-02-16T04:33:50;11.90;99.90
21167;DHT22;10741;52.272;9.580;2024-02-16T04:36:16;11.90;99.90
21167;DHT22;10741;52.272;9.580;2024-02-16T04:38:42;11.90;99.90
21167;DHT22;10741;52.272;9.580;2024-02-16T04:41:08;11.70;99.90
21167;DHT22;10741;52.272;9.580;2024-02-16T04:43:34;11.70;99.90
21167;DHT22;10741;52.272;9.580;2024-02-16T04:46:00;11.60;99.90
21167;DHT22;10741;52.272;9.580;2024-02-16T04:48:26;11.60;99.90
21167;DHT22;10741;52.272;9.580;2024-02-16T04:50:51;11.50;99.90
21167;DHT22;10741;52.272;9.580;2024-02-16T04:53:17;11.40;99.90
21167;DHT22;10741;52.272;9.580;2024-02-16T04:55:43;11.40;99.90
21167;DHT22;10741;52.272;9.580;2024-02-16T04:58:08;11.60;99.90
21167;DHT22;10741;52.272;9.580;2024-02-16T05:00:38;11.80;99.90
21167;DHT22;10741;52.272;9.580;2024-02-16T05:03:04;12.00;99.90
21167;DHT22;10741;52.272;9.580;2024-02-16T05:05:30;12.20;99.90
21167;DHT22;10741;52.272;9.580;2024-02-16T05:07:56;12.20;99.90
21167;DHT22;10741;52.272;9.580;2024-02-16T05:10:22;12.20;99.90
21167;DHT22;10741;52.272;9.580;2024-02-16T05:12:48;12.10;99.90
21167;DHT22;10741;52.272;9.580;2024-02-16T05:15:14;12.10;99.90
21167;DHT22;10741;52.272;9.580;2024-02-16T05:17:40;12.10;99.90
21167;DHT22;10741;52.272;9.580;2024-02-16T05:20:12;12.10;99.90
21167;DHT22;10741;52.272;9.580;2024-02-16T05:22:44;12.10;99.90
21167;DHT22;10741;52.272;9.580;2024-02-16T05:25:12;12.00;99.90
21167;DHT22;10741;52.272;9.580;2024-02-16T05:27:37;12.00;99.90
21167;DHT22;10741;52.272;9.580;2024-02-16T05:30:08;12.00;99.90
21167;DHT22;10741;52.272;9.580;2024-02-16T05:32:35;12.10;99.90
21167;DHT22;10741;52.272;9.580;2024-02-16T05:35:02;12.10;99.90
21167;DHT22;10741;52.272;9.580;2024-02-16T05:37:37;12.10;99.90
21167;DHT22;10741;52.272;9.580;2024-02-16T05:40:09;12.20;99.90
21167;DHT22;10741;52.272;9.580;2024-02-16T05:42:47;12.10;99.90
21167;DHT22;10741;52.272;9.580;2024-02-16T05:45:13;12.00;99.90
21167;DHT22;10741;52.272;9.580;2024-02-16T05:47:39;11.90;99.90
21167;DHT22;10741;52.272;9.580;2024-02-16T05:50:05;12.00;99.90
21167;DHT22;10741;52.272;9.580;2024-02-16T05:52:32;12.00;99.90
21167;DHT22;10741;52.272;9.580;2024-02-16T05:54:57;12.00;99.90
21167;DHT22;10741;52.272;9.580;2024-02-16T05:57:23;12.10;99.90
21167;DHT22;10741;52.272;9.580;2024-02-16T05:59:50;12.10;99.90
21167;DHT22;10741;52.272;9.580;2024-02-16T06:02:18;12.10;99.90
21167;DHT22;10741;52.272;9.580;2024-02-16T06:04:43;12.10;99.90
21167;DHT22;10741;52.272;9.580;2024-02-16T06:07:09;12.10;99.90
21167;DHT22;10741;52.272;9.580;2024-02-16T06:09:36;12.10;99.90
21167;DHT22;10741;52.272;9.580;2024-02-16T06:12:03;12.10;99.90
21167;DHT22;10741;52.272;9.580;2024-02-16T06:14:33;12.10;99.90
21167;DHT22;10741;52.272;9.580;2024-02-16T06:16:59;12.00;99.90
21167;DHT22;10741;52.272;9.580;2024-02-16T06:19:25;11.80;99.90
21167;DHT22;10741;52.272;9.580;2024-02-16T06:21:52;11.60;99.90
21167;DHT22;10741;52.272;9.580;2024-02-16T06:24:18;11.40;99.90
21167;DHT22;10741;52.272;9.580;2024-02-16T06:26:44;11.30;99.90
21167;DHT22;10741;52.272;9.580;2024-02-16T06:29:10;11.20;99.90
21167;DHT22;10741;52.272;9.580;2024-02-16T06:31:35;11.10;99.90
21167;DHT22;10741;52.272;9.580;2024-02-16T06:34:01;11.00;99.90
21167;DHT22;10741;52.272;9.580;2024-02-16T06:36:27;10.90;99.90
21167;DHT22;10741;52.272;9.580;2024-02-16T06:38:52;10.90;99.90
21167;DHT22;10741;52.272;9.580;2024-02-16T06:41:18;10.80;99.90
21167;DHT22;10741;52.272;9.580;2024-02-16T06:43:44;10.80;99.90
21167;DHT22;10741;52.272;9.580;2024-02-16T06:46:09;10.70;99.90
21167;DHT22;10741;52.272;9.580;2024-02-16T06:48:35;10.70;99.90
21167;DHT22;10741;52.272;9.580;2024-02-16T06:51:01;10.80;99.90
21167;DHT22;10741;52.272;9.580;2024-02-16T06:53:27;10.80;99.90
21167;DHT22;10741;52.272;9.580;2024-02-16T06:55:52;10.80;99.90
21167;DHT22;10741;52.272;9.580;2024-02-16T06:58:18;10.80;99.90
21167;DHT22;10741;52.272;9.580;2024-02-16T07:00:43;10.90;99.90
21167;DHT22;10741;52.272;9.580;2024-02-16T07:03:09;10.90;99.90
21167;DHT22;10741;52.272;9.580;2024-02-16T07:05:35;11.50;99.90
21167;DHT22;10741;52.272;9.580;2024-02-16T07:08:01;11.80;99.90
21167;DHT22;10741;52.272;9.580;2024-02-16T07:10:26;11.80;99.90
21167;DHT22;10741;52.272;9.580;2024-02-16T07:12:52;11.90;99.90
21167;DHT22;10741;52.272;9.580;2024-02-16T07:15:17;11.90;99.90
21167;DHT22;10741;52.272;9.580;2024-02-16T07:17:43;11.80;99.90
21167;DHT22;10741;52.272;9.580;2024-02-16T07:20:10;11.80;99.90
21167;DHT22;10741;52.272;9.580;2024-02-16T07:22:36;11.90;99.90
21167;DHT22;10741;52.272;9.580;2024-02-16T07:25:02;11.70;99.90
21167;DHT22;10741;52.272;9.580;2024-02-16T07:27:29;11.90;99.90
21167;DHT22;10741;52.272;9.580;2024-02-16T07:29:55;12.20;99.90
21167;DHT22;10741;52.272;9.580;2024-02-16T07:32:21;12.30;99.90
21167;DHT22;10741;52.272;9.580;2024-02-16T07:34:47;12.40;99.90
21167;DHT22;10741;52.272;9.580;2024-02-16T07:37:14;12.40;99.90
21167;DHT22;10741;52.272;9.580;2024-02-16T07:39:47;12.40;99.90
21167;DHT22;10741;52.272;9.580;2024-02-16T07:42:13;12.50;99.90
21167;DHT22;10741;52.272;9.580;2024-02-16T07:44:39;12.60;99.90
21167;DHT22;10741;52.272;9.580;2024-02-16T07:47:05;12.70;99.90
21167;DHT22;10741;52.272;9.580;2024-02-16T07:49:31;12.70;99.90
21167;DHT22;10741;52.272;9.580;2024-02-16T07:51:57;12.80;99.90
21167;DHT22;10741;52.272;9.580;2024-02-16T07:54:23;12.80;99.90
21167;DHT22;10741;52.272;9.580;2024-02-16T07:56:49;12.90;99.90
21167;DHT22;10741;52.272;9.580;2024-02-16T07:59:15;12.90;99.90
21167;DHT22;10741;52.272;9.580;2024-02-16T08:01:40;13.00;99.90
21167;DHT22;10741;52.272;9.580;2024-02-16T08:04:06;13.10;99.90
21167;DHT22;10741;52.272;9.580;2024-02-16T08:06:32;13.30;99.90
21167;DHT22;10741;52.272;9.580;2024-02-16T08:08:57;13.50;99.90
21167;DHT22;10741;52.272;9.580;2024-02-16T08:11:23;13.40;99.90
21167;DHT22;10741;52.272;9.580;2024-02-16T08:13:49;13.20;99.90
21167;DHT22;10741;52.272;9.580;2024-02-16T08:16:14;13.10;99.90
21167;DHT22;10741;52.272;9.580;2024-02-16T08:18:43;13.10;99.90
21167;DHT22;10741;52.272;9.580;2024-02-16T08:21:09;13.00;99.90
21167;DHT22;10741;52.272;9.580;2024-02-16T08:23:35;13.00;99.90
21167;DHT22;10741;52.272;9.580;2024-02-16T08:26:03;13.00;99.90
21167;DHT22;10741;52.272;9.580;2024-02-16T08:28:29;12.90;99.90
21167;DHT22;10741;52.272;9.580;2024-02-16T08:30:54;13.00;99.90
21167;DHT22;10741;52.272;9.580;2024-02-16T08:33:20;13.00;99.90
21167;DHT22;10741;52.272;9.580;2024-02-16T08:35:46;13.10;99.90
21167;DHT22;10741;52.272;9.580;2024-02-16T08:38:11;13.10;99.90
21167;DHT22;10741;52.272;9.580;2024-02-16T08:40:37;13.10;99.90
21167;DHT22;10741;52.272;9.580;2024-02-16T08:43:04;13.20;99.90
21167;DHT22;10741;52.272;9.580;2024-02-16T08:45:30;13.20;99.90
21167;DHT22;10741;52.272;9.580;2024-02-16T08:47:56;13.30;99.90
21167;DHT22;10741;52.272;9.580;2024-02-16T08:50:23;13.40;99.90
21167;DHT22;10741;52.272;9.580;2024-02-16T08:52:49;13.40;99.90
21167;DHT22;10741;52.272;9.580;2024-02-16T08:55:15;13.50;99.90
21167;DHT22;10741;52.272;9.580;2024-02-16T08:57:41;13.50;99.90
21167;DHT22;10741;52.272;9.580;2024-02-16T09:00:08;13.40;99.90
21167;DHT22;10741;52.272;9.580;2024-02-16T09:02:34;13.40;99.90
21167;DHT22;10741;52.272;9.580;2024-02-16T09:05:00;13.40;99.90
21167;DHT22;10741;52.272;9.580;2024-02-16T09:07:25;13.30;99.90
21167;DHT22;10741;52.272;9.580;2024-02-16T09:09:52;13.30;99.90
21167;DHT22;10741;52.272;9.580;2024-02-16T09:12:18;13.40;99.90
21167;DHT22;10741;52.272;9.580;2024-02-16T09:14:44;13.40;99.90
21167;DHT22;10741;52.272;9.580;2024-02-16T09:17:09;13.40;99.90
21167;DHT22;10741;52.272;9.580;2024-02-16T09:19:35;13.40;99.90
21167;DHT22;10741;52.272;9.580;2024-02-16T09:22:01;13.40;99.90
21167;DHT22;10741;52.272;9.580;2024-02-16T09:24:32;13.40;99.90
21167;DHT22;10741;52.272;9.580;2024-02-16T09:26:58;13.50;99.90
21167;DHT22;10741;52.272;9.580;2024-02-16T09:29:29;13.50;99.90
21167;DHT22;10741;52.272;9.580;2024-02-16T09:31:54;13.50;99.90
21167;DHT22;10741;52.272;9.580;2024-02-16T09:34:20;13.60;99.90
21167;DHT22;10741;52.272;9.580;2024-02-16T09:36:46;13.60;99.90
21167;DHT22;10741;52.272;9.580;2024-02-16T09:39:12;13.70;99.90
21167;DHT22;10741;52.272;9.580;2024-02-16T09:41:41;13.70;99.90
21167;DHT22;10741;52.272;9.580;2024-02-16T09:44:08;13.70;99.90
21167;DHT22;10741;52.272;9.580;2024-02-16T09:46:35;13.80;99.90
21167;DHT22;10741;52.272;9.580;2024-02-16T09:49:03;13.90;99.90
21167;DHT22;10741;52.272;9.580;2024-02-16T09:51:29;13.90;99.90
21167;DHT22;10741;52.272;9.580;2024-02-16T09:53:55;14.00;99.90
21167;DHT22;10741;52.272;9.580;2024-02-16T09:56:21;14.00;99.90
21167;DHT22;10741;52.272;9.580;2024-02-16T09:58:47;14.00;99.90
21167;DHT22;10741;52.272;9.580;2024-02-16T10:01:20;14.00;99.90
21167;DHT22;10741;52.272;9.580;2024-02-16T10:03:46;14.10;99.90
21167;DHT22;10741;52.272;9.580;2024-02-16T10:06:13;14.10;99.90
21167;DHT22;10741;52.272;9.580;2024-02-16T10:08:54;14.10;99.90
21167;DHT22;10741;52.272;9.580;2024-02-16T10:11:21;14.20;99.90
21167;DHT22;10741;52.272;9.580;2024-02-16T10:14:02;14.30;99.90
21167;DHT22;10741;52.272;9.580;2024-02-16T10:16:29;14.40;99.90
21167;DHT22;10741;52.272;9.580;2024-02-16T10:19:08;14.50;99.90
21167;DHT22;10741;52.272;9.580;2024-02-16T10:21:36;14.50;99.90
21167;DHT22;10741;52.272;9.580;2024-02-16T10:24:05;14.50;99.90
21167;DHT22;10741;52.272;9.580;2024-02-16T10:26:32;14.50;99.90
21167;DHT22;10741;52.272;9.580;2024-02-16T10:28:58;14.50;99.90
21167;DHT22;10741;52.272;9.580;2024-02-16T10:31:25;14.50;99.90
21167;DHT22;10741;52.272;9.580;2024-02-16T10:33:59;14.50;99.90
21167;DHT22;10741;52.272;9.580;2024-02-16T10:36:25;14.60;99.90
21167;DHT22;10741;52.272;9.580;2024-02-16T10:38:55;14.60;99.90
21167;DHT22;10741;52.272;9.580;2024-02-16T10:41:26;14.70;99.90
21167;DHT22;10741;52.272;9.580;2024-02-16T10:43:54;14.80;99.90
21167;DHT22;10741;52.272;9.580;2024-02-16T10:46:20;14.80;99.90
21167;DHT22;10741;52.272;9.580;2024-02-16T10:48:47;14.90;99.90
21167;DHT22;10741;52.272;9.580;2024-02-16T10:51:15;15.00;99.90
21167;DHT22;10741;52.272;9.580;2024-02-16T10:53:43;15.20;99.90
21167;DHT22;10741;52.272;9.580;2024-02-16T10:56:09;15.40;99.90
21167;DHT22;10741;52.272;9.580;2024-02-16T10:58:36;15.50;99.90
21167;DHT22;10741;52.272;9.580;2024-02-16T11:01:09;15.70;99.90
21167;DHT22;10741;52.272;9.580;2024-02-16T11:03:39;16.00;99.90
21167;DHT22;10741;52.272;9.580;2024-02-16T11:06:18;16.10;99.90
21167;DHT22;10741;52.272;9.580;2024-02-16T11:08:43;15.90;99.90
21167;DHT22;10741;52.272;9.580;2024-02-16T11:11:09;15.80;99.90
21167;DHT22;10741;52.272;9.580;2024-02-16T11:13:37;15.60;99.90
21167;DHT22;10741;52.272;9.580;2024-02-16T11:16:07;15.50;99.90
21167;DHT22;10741;52.272;9.580;2024-02-16T11:18:38;15.50;99.90
21167;DHT22;10741;52.272;9.580;2024-02-16T11:21:05;15.60;99.90
21167;DHT22;10741;52.272;9.580;2024-02-16T11:23:35;15.80;99.90
21167;DHT22;10741;52.272;9.580;2024-02-16T11:26:02;15.90;99.90
21167;DHT22;10741;52.272;9.580;2024-02-16T11:28:31;15.90;99.90
21167;DHT22;10741;52.272;9.580;2024-02-16T11:30:57;16.00;99.90
21167;DHT22;10741;52.272;9.580;2024-02-16T11:33:23;16.20;99.90
21167;DHT22;10741;52.272;9.580;2024-02-16T11:35:59;16.30;99.90
21167;DHT22;10741;52.272;9.580;2024-02-16T11:38:25;16.40;99.90
21167;DHT22;10741;52.272;9.580;2024-02-16T11:41:05;16.60;99.90
21167;DHT22;10741;52.272;9.580;2024-02-16T11:43:31;16.70;99.90
21167;DHT22;10741;52.272;9.580;2024-02-16T11:46:10;16.70;99.90
21167;DHT22;10741;52.272;9.580;2024-02-16T11:48:36;16.70;99.90
21167;DHT22;10741;52.272;9.580;2024-02-16T11:51:06;16.60;99.90
21167;DHT22;10741;52.272;9.580;2024-02-16T11:53:32;16.70;99.90
21167;DHT22;10741;52.272;9.580;2024-02-16T11:55:59;16.80;99.90
21167;DHT22;10741;52.272;9.580;2024-02-16T11:58:26;17.00;99.90
21167;DHT22;10741;52.272;9.580;2024-02-16T12:00:52;17.20;99.90
21167;DHT22;10741;52.272;9.580;2024-02-16T12:03:25;17.30;99.90
21167;DHT22;10741;52.272;9.580;2024-02-16T12:05:56;17.60;99.90
21167;DHT22;10741;52.272;9.580;2024-02-16T12:08:23;17.70;99.90
21167;DHT22;10741;52.272;9.580;2024-02-16T12:10:50;17.70;99.90
21167;DHT22;10741;52.272;9.580;2024-02-16T12:13:19;17.60;99.90
21167;DHT22;10741;52.272;9.580;2024-02-16T12:15:50;17.50;99.90
21167;DHT22;10741;52.272;9.580;2024-02-16T12:18:26;17.50;99.90
21167;DHT22;10741;52.272;9.580;2024-02-16T12:21:00;17.70;99.90
21167;DHT22;10741;52.272;9.580;2024-02-16T12:23:26;18.00;99.90
21167;DHT22;10741;52.272;9.580;2024-02-16T12:25:53;18.10;99.90
21167;DHT22;10741;52.272;9.580;2024-02-16T12:28:23;17.90;99.90
21167;DHT22;10741;52.272;9.580;2024-02-16T12:30:49;17.90;99.90
21167;DHT22;10741;52.272;9.580;2024-02-16T12:33:15;17.80;99.90
21167;DHT22;10741;52.272;9.580;2024-02-16T12:35:42;17.80;99.90
21167;DHT22;10741;52.272;9.580;2024-02-16T12:38:08;17.80;99.90
21167;DHT22;10741;52.272;9.580;2024-02-16T12:40:33;17.70;99.90
21167;DHT22;10741;52.272;9.580;2024-02-16T12:42:59;17.40;99.90
21167;DHT22;10741;52.272;9.580;2024-02-16T12:45:25;17.10;99.90
21167;DHT22;10741;52.272;9.580;2024-02-16T12:47:50;17.00;99.90
21167;DHT22;10741;52.272;9.580;2024-02-16T12:50:16;16.80;99.90
21167;DHT22;10741;52.272;9.580;2024-02-16T12:52:45;16.70;99.90
21167;DHT22;10741;52.272;9.580;2024-02-16T12:55:11;16.50;99.90
21167;DHT22;10741;52.272;9.580;2024-02-16T12:57:39;16.40;99.90
21167;DHT22;10741;52.272;9.580;2024-02-16T13:00:05;16.30;99.90
21167;DHT22;10741;52.272;9.580;2024-02-16T13:02:31;16.10;99.90
21167;DHT22;10741;52.272;9.580;2024-02-16T13:04:57;16.00;99.90
21167;DHT22;10741;52.272;9.580;2024-02-16T13:07:23;16.00;99.90
21167;DHT22;10741;52.272;9.580;2024-02-16T13:09:49;15.90;99.90
21167;DHT22;10741;52.272;9.580;2024-02-16T13:12:16;15.90;99.90
21167;DHT22;10741;52.272;9.580;2024-02-16T13:14:42;15.80;99.90
21167;DHT22;10741;52.272;9.580;2024-02-16T13:17:08;15.80;99.90
21167;DHT22;10741;52.272;9.580;2024-02-16T13:19:34;15.70;99.90
21167;DHT22;10741;52.272;9.580;2024-02-16T13:21:59;15.70;99.90
21167;DHT22;10741;52.272;9.580;2024-02-16T13:24:25;15.70;99.90
21167;DHT22;10741;52.272;9.580;2024-02-16T13:26:51;15.70;99.90
21167;DHT22;10741;52.272;9.580;2024-02-16T13:29:17;15.70;99.90
21167;DHT22;10741;52.272;9.580;2024-02-16T13:31:42;15.60;99.90
21167;DHT22;10741;52.272;9.580;2024-02-16T13:34:08;15.60;99.90
21167;DHT22;10741;52.272;9.580;2024-02-16T13:36:34;15.60;99.90
21167;DHT22;10741;52.272;9.580;2024-02-16T13:39:00;15.50;99.90
21167;DHT22;10741;52.272;9.580;2024-02-16T13:41:25;15.40;99.90
21167;DHT22;10741;52.272;9.580;2024-02-16T13:43:51;15.50;99.90
21167;DHT22;10741;52.272;9.580;2024-02-16T13:46:17;15.40;99.90
21167;DHT22;10741;52.272;9.580;2024-02-16T13:48:43;15.50;99.90
21167;DHT22;10741;52.272;9.580;2024-02-16T13:51:09;15.60;99.90
21167;DHT22;10741;52.272;9.580;2024-02-16T13:53:38;15.60;99.90
21167;DHT22;10741;52.272;9.580;2024-02-16T13:56:04;15.60;99.90
21167;DHT22;10741;52.272;9.580;2024-02-16T13:58:31;15.70;99.90
21167;DHT22;10741;52.272;9.580;2024-02-16T14:00:58;15.60;99.90
21167;DHT22;10741;52.272;9.580;2024-02-16T14:03:25;15.60;99.90
21167;DHT22;10741;52.272;9.580;2024-02-16T14:05:51;15.50;99.90
21167;DHT22;10741;52.272;9.580;2024-02-16T14:08:17;15.50;99.90
21167;DHT22;10741;52.272;9.580;2024-02-16T14:10:43;15.50;99.90
21167;DHT22;10741;52.272;9.580;2024-02-16T14:13:09;15.50;99.90
21167;DHT22;10741;52.272;9.580;2024-02-16T14:15:35;15.50;99.90
21167;DHT22;10741;52.272;9.580;2024-02-16T14:18:04;15.50;99.90
21167;DHT22;10741;52.272;9.580;2024-02-16T14:20:30;15.50;99.90
21167;DHT22;10741;52.272;9.580;2024-02-16T14:22:55;15.50;99.90
21167;DHT22;10741;52.272;9.580;2024-02-16T14:25:22;15.40;99.90
21167;DHT22;10741;52.272;9.580;2024-02-16T14:27:49;15.40;99.90
21167;DHT22;10741;52.272;9.580;2024-02-16T14:30:15;15.40;99.90
21167;DHT22;10741;52.272;9.580;2024-02-16T14:32:41;15.40;99.90
21167;DHT22;10741;52.272;9.580;2024-02-16T14:35:07;15.30;99.90
21167;DHT22;10741;52.272;9.580;2024-02-16T14:37:33;15.30;99.90
21167;DHT22;10741;52.272;9.580;2024-02-16T14:39:58;15.20;99.90
21167;DHT22;10741;52.272;9.580;2024-02-16T14:42:27;15.20;99.90
21167;DHT22;10741;52.272;9.580;2024-02-16T14:44:54;15.20;99.90
21167;DHT22;10741;52.272;9.580;2024-02-16T14:47:19;15.20;99.90
21167;DHT22;10741;52.272;9.580;2024-02-16T14:49:47;15.30;99.90
21167;DHT22;10741;52.272;9.580;2024-02-16T14:52:13;15.30;99.90
21167;DHT22;10741;52.272;9.580;2024-02-16T14:54:38;15.30;99.90
21167;DHT22;10741;52.272;9.580;2024-02-16T14:57:05;15.30;99.90
21167;DHT22;10741;52.272;9.580;2024-02-16T14:59:31;15.40;99.90
21167;DHT22;10741;52.272;9.580;2024-02-16T15:01:56;15.40;99.90
21167;DHT22;10741;52.272;9.580;2024-02-16T15:04:23;15.30;99.90
21167;DHT22;10741;52.272;9.580;2024-02-16T15:06:48;15.30;99.90
21167;DHT22;10741;52.272;9.580;2024-02-16T15:09:14;15.30;99.90
21167;DHT22;10741;52.272;9.580;2024-02-16T15:11:40;15.20;99.90
21167;DHT22;10741;52.272;9.580;2024-02-16T15:14:06;15.10;99.90
21167;DHT22;10741;52.272;9.580;2024-02-16T15:16:32;15.10;99.90
21167;DHT22;10741;52.272;9.580;2024-02-16T15:18:58;15.10;99.90
21167;DHT22;10741;52.272;9.580;2024-02-16T15:21:24;15.00;99.90
21167;DHT22;10741;52.272;9.580;2024-02-16T15:23:49;15.00;99.90
21167;DHT22;10741;52.272;9.580;2024-02-16T15:26:15;14.90;99.90